地図

経路データ

SID SEASON NUMBER BASIN SUBBASIN NAME ISO_TIME NATURE LAT LON WMO_WIND WMO_PRES WMO_AGENCY TRACK_TYPE DIST2LAND LANDFALL IFLAG USA_AGENCY USA_ATCF_ID USA_LAT USA_LON USA_RECORD USA_STATUS USA_WIND USA_PRES USA_SSHS USA_R34_NE USA_R34_SE USA_R34_SW USA_R34_NW USA_R50_NE USA_R50_SE USA_R50_SW USA_R50_NW USA_R64_NE USA_R64_SE USA_R64_SW USA_R64_NW USA_POCI USA_ROCI USA_RMW USA_EYE TOKYO_LAT TOKYO_LON TOKYO_GRADE TOKYO_WIND TOKYO_PRES TOKYO_R50_DIR TOKYO_R50_LONG TOKYO_R50_SHORT TOKYO_R30_DIR TOKYO_R30_LONG TOKYO_R30_SHORT TOKYO_LAND CMA_LAT CMA_LON CMA_CAT CMA_WIND CMA_PRES HKO_LAT HKO_LON HKO_CAT HKO_WIND HKO_PRES NEWDELHI_LAT NEWDELHI_LON NEWDELHI_GRADE NEWDELHI_WIND NEWDELHI_PRES NEWDELHI_CI NEWDELHI_DP NEWDELHI_POCI REUNION_LAT REUNION_LON REUNION_TYPE REUNION_WIND REUNION_PRES REUNION_TNUM REUNION_CI REUNION_RMW REUNION_R34_NE REUNION_R34_SE REUNION_R34_SW REUNION_R34_NW REUNION_R50_NE REUNION_R50_SE REUNION_R50_SW REUNION_R50_NW REUNION_R64_NE REUNION_R64_SE REUNION_R64_SW REUNION_R64_NW BOM_LAT BOM_LON BOM_TYPE BOM_WIND BOM_PRES BOM_TNUM BOM_CI BOM_RMW BOM_R34_NE BOM_R34_SE BOM_R34_SW BOM_R34_NW BOM_R50_NE BOM_R50_SE BOM_R50_SW BOM_R50_NW BOM_R64_NE BOM_R64_SE BOM_R64_SW BOM_R64_NW BOM_ROCI BOM_POCI BOM_EYE BOM_POS_METHOD BOM_PRES_METHOD NADI_LAT NADI_LON NADI_CAT NADI_WIND NADI_PRES WELLINGTON_LAT WELLINGTON_LON WELLINGTON_WIND WELLINGTON_PRES DS824_LAT DS824_LON DS824_STAGE DS824_WIND DS824_PRES TD9636_LAT TD9636_LON TD9636_STAGE TD9636_WIND TD9636_PRES TD9635_LAT TD9635_LON TD9635_WIND TD9635_PRES TD9635_ROCI NEUMANN_LAT NEUMANN_LON NEUMANN_CLASS NEUMANN_WIND NEUMANN_PRES MLC_LAT MLC_LON MLC_CLASS MLC_WIND MLC_PRES USA_GUST BOM_GUST BOM_GUST_PER REUNION_GUST REUNION_GUST_PER USA_SEAHGT USA_SEARAD_NE USA_SEARAD_SE USA_SEARAD_SW USA_SEARAD_NW STORM_SPEED STORM_DIR
1879309N21332 1879 31 NA NA NOT_NAMED 1879-11-05 00:00:00 TS 21.0000 -28.0000 main 1132 1111 _____________O -1 21.0000 -28.0000 TS 40 7 43
1879309N21332 1879 31 NA NA NOT_NAMED 1879-11-05 03:00:00 TS 21.2501 -27.7502 main 1111 1080 _____________P -1 21.2501 -27.7502 TS 47 7 43
1879309N21332 1879 31 NA NA NOT_NAMED 1879-11-05 06:00:00 TS 21.5000 -27.5000 main 1080 1061 _____________O -1 21.5000 -27.5000 TS 55 7 43
1879309N21332 1879 31 NA NA NOT_NAMED 1879-11-05 09:00:00 TS 21.7500 -27.2499 main 1051 1031 _____________P -1 21.7500 -27.2499 TS 60 7 43
1879309N21332 1879 31 NA NA NOT_NAMED 1879-11-05 12:00:00 TS 22.0000 -27.0000 main 1031 1010 _____________O -1 22.0000 -27.0000 HU 65 7 43
1879309N21332 1879 31 NA NA NOT_NAMED 1879-11-05 15:00:00 TS 22.2500 -26.7499 main 1000 981 _____________P -1 22.2500 -26.7499 HU 67 7 43
1879309N21332 1879 31 NA NA NOT_NAMED 1879-11-05 18:00:00 TS 22.5000 -26.5000 main 981 961 _____________O -1 22.5000 -26.5000 HU 70 6 50
1879309N21332 1879 31 NA NA NOT_NAMED 1879-11-05 21:00:00 TS 22.6149 -26.2712 main 961 933 _____________P -1 22.6149 -26.2712 HU 72 7 43
1879309N21332 1879 31 NA NA NOT_NAMED 1879-11-06 00:00:00 TS 23.0000 -26.0000 main 934 914 _____________O -1 23.0000 -26.0000 HU 75 972 15 23
1879309N21332 1879 31 NA NA NOT_NAMED 1879-11-06 03:00:00 TS 24.0227 -25.6233 main 914 898 _____________P -1 24.0227 -25.6233 HU 77 972 24 18
1879309N21332 1879 31 NA NA NOT_NAMED 1879-11-06 06:00:00 TS 25.3000 -25.2000 main 893 811 _____________I -1 25.3000 -25.2000 HU 80 972 26 18
1879309N21332 1879 31 NA NA NOT_NAMED 1879-11-06 09:00:00 TS 26.5126 -24.7413 main 802 750 _____________P -1 26.5126 -24.7413 HU 80 972 23 18
1879309N21332 1879 31 NA NA NOT_NAMED 1879-11-06 12:00:00 TS 27.5000 -24.4000 main 750 735 _____________O -1 27.5000 -24.4000 HU 80 973 16 14
1879309N21332 1879 31 NA NA NOT_NAMED 1879-11-06 15:00:00 TS 28.0122 -24.3311 main 735 734 _____________P -1 28.0122 -24.3311 HU 80 8 1
1879309N21332 1879 31 NA NA NOT_NAMED 1879-11-06 18:00:00 TS 28.3000 -24.4000 main 743 742 _____________O -1 28.3000 -24.4000 HU 80 6 351
1879309N21332 1879 31 NA NA NOT_NAMED 1879-11-06 21:00:00 TS 28.6500 -24.4499 main 743 743 _____________P -1 28.6500 -24.4499 HU 80 7 353
1879309N21332 1879 31 NA NA NOT_NAMED 1879-11-07 00:00:00 TS 29.0000 -24.5000 main 754 754 _____________O -1 29.0000 -24.5000 HU 80 8 358
1879309N21332 1879 31 NA NA NOT_NAMED 1879-11-07 03:00:00 TS 29.4000 -24.5002 main 758 758 _____________P -1 29.4000 -24.5002 HU 80 8 1
1879309N21332 1879 31 NA NA NOT_NAMED 1879-11-07 06:00:00 TS 29.8000 -24.5000 main 765 765 _____________O -1 29.8000 -24.5000 HU 80 8 0
1879309N21332 1879 31 NA NA NOT_NAMED 1879-11-07 09:00:00 TS 30.1573 -24.4905 main 775 775 _____________P -1 30.1573 -24.4905 HU 80 7 353
1879309N21332 1879 31 NA NA NOT_NAMED 1879-11-07 12:00:00 TS 30.5000 -24.6000 main 793 793 _____________O -1 30.5000 -24.6000 HU 80 8 330
1879309N21332 1879 31 NA NA NOT_NAMED 1879-11-07 15:00:00 TS 30.8578 -24.9546 main 842 842 _____________P -1 30.8578 -24.9546 HU 77 10 316
1879309N21332 1879 31 NA NA NOT_NAMED 1879-11-07 18:00:00 TS 31.2000 -25.4000 main 889 889 _____________O -1 31.2000 -25.4000 HU 75 9 313
1879309N21332 1879 31 NA NA NOT_NAMED 1879-11-07 21:00:00 TS 31.5073 -25.7579 main 936 936 _____________P -1 31.5073 -25.7579 HU 70 8 315
1879309N21332 1879 31 NA NA NOT_NAMED 1879-11-08 00:00:00 ET 31.8000 -26.1000 main 974 974 _____________O -1 31.8000 -26.1000 EX 65 8 315
1879309N21332 1879 31 NA NA NOT_NAMED 1879-11-08 03:00:00 ET 32.0999 -26.4502 main 1022 1022 _____________P -1 32.0999 -26.4502 EX 62 8 315
1879309N21332 1879 31 NA NA NOT_NAMED 1879-11-08 06:00:00 ET 32.4000 -26.8000 main 1061 1061 _____________O -1 32.4000 -26.8000 EX 60 8 312
1879309N21332 1879 31 NA NA NOT_NAMED 1879-11-08 09:00:00 ET 32.6627 -27.2023 main 1108 1108 _____________P -1 32.6627 -27.2023 EX 60 8 316
1879309N21332 1879 31 NA NA NOT_NAMED 1879-11-08 12:00:00 ET 33.0000 -27.5000 main 1147 1147 _____________O -1 33.0000 -27.5000 EX 60 9 335
1879309N21332 1879 31 NA NA NOT_NAMED 1879-11-08 15:00:00 ET 33.5116 -27.6634 main 1188 1188 _____________P -1 33.5116 -27.6634 EX 60 11 360
1879309N21332 1879 31 NA NA NOT_NAMED 1879-11-08 18:00:00 ET 34.1000 -27.5000 main 1203 1185 _____________O -1 34.1000 -27.5000 EX 60 13 31
1879309N21332 1879 31 NA NA NOT_NAMED 1879-11-08 21:00:00 ET 34.6209 -26.8628 main 1185 1159 _____________P -1 34.6209 -26.8628 EX 57 17 48
1879309N21332 1879 31 NA NA NOT_NAMED 1879-11-09 00:00:00 ET 35.2000 -26.0000 main 1159 1159 _____________O -1 35.2000 -26.0000 EX 55 19 43
1879309N21332 1879 31 NA NA NOT_NAMED 1879-11-09 03:00:00 ET 36.0095 -25.2520 main 1171 1167 _____________P -1 36.0095 -25.2520 EX 52 19 39
1879309N21332 1879 31 NA NA NOT_NAMED 1879-11-09 06:00:00 ET 36.7000 -24.5000 main 1181 1164 _____________O -1 36.7000 -24.5000 EX 50 16 52
1879309N21332 1879 31 NA NA NOT_NAMED 1879-11-09 09:00:00 ET 37.0080 -23.6736 main 1164 1129 _____________P -1 37.0080 -23.6736 EX 47 12 76
1879309N21332 1879 31 NA NA NOT_NAMED 1879-11-09 12:00:00 ET 37.0000 -23.0000 main 1129 1096 _____________O -1 37.0000 -23.0000 EX 45 8 107
1879309N21332 1879 31 NA NA NOT_NAMED 1879-11-09 15:00:00 ET 36.7666 -22.6745 main 1096 1049 _____________P -1 36.7666 -22.6745 EX 42 7 146
1879309N21332 1879 31 NA NA NOT_NAMED 1879-11-09 18:00:00 ET 36.4000 -22.5000 main 1049 1011 _____________O -1 36.4000 -22.5000 EX 40 8 153
1879309N21332 1879 31 NA NA NOT_NAMED 1879-11-09 21:00:00 ET 36.0999 -22.2502 main 1011 968 _____________P -1 36.0999 -22.2502 EX 40 7 146
1879309N21332 1879 31 NA NA NOT_NAMED 1879-11-10 00:00:00 ET 35.8000 -22.0000 main 968 930 _____________O -1 35.8000 -22.0000 EX 40 7 146
1879309N21332 1879 31 NA NA NOT_NAMED 1879-11-10 03:00:00 ET 35.5074 -21.7503 main 930 888 _____________P -1 35.5074 -21.7503 EX 40 7 146
1879309N21332 1879 31 NA NA NOT_NAMED 1879-11-10 06:00:00 ET 35.2000 -21.5000 main 888 840 _____________O -1 35.2000 -21.5000 EX 40 8 150
1879309N21332 1879 31 NA NA NOT_NAMED 1879-11-10 09:00:00 ET 34.8273 -21.2725 main 840 797 _____________P -1 34.8273 -21.2725 EX 40 8 150
1879309N21332 1879 31 NA NA NOT_NAMED 1879-11-10 12:00:00 ET 34.5000 -21.0000 main 797 759 _____________O -1 34.5000 -21.0000 EX 40 7 134
1879309N21332 1879 31 NA NA NOT_NAMED 1879-11-10 15:00:00 ET 34.3126 -20.6152 main 759 730 _____________P -1 34.3126 -20.6152 EX 40 7 114
1879309N21332 1879 31 NA NA NOT_NAMED 1879-11-10 18:00:00 ET 34.2000 -20.2000 main 730 707 _____________O -1 34.2000 -20.2000 EX 40 7 108
1879309N21332 1879 31 NA NA NOT_NAMED 1879-11-10 21:00:00 ET 34.0998 -19.8428 main 702 680 _____________P -1 34.0998 -19.8428 EX 40 6 109
1879309N21332 1879 31 NA NA NOT_NAMED 1879-11-11 00:00:00 ET 34.0000 -19.5000 main 680 658 _____________O -1 34.0000 -19.5000 EX 40 6 114
1879309N21332 1879 31 NA NA NOT_NAMED 1879-11-11 03:00:00 ET 33.8498 -19.1575 main 648 623 _____________P -1 33.8498 -19.1575 EX 40 7 117
1879309N21332 1879 31 NA NA NOT_NAMED 1879-11-11 06:00:00 ET 33.7000 -18.8000 main 623 599 _____________O -1 33.7000 -18.8000 EX 40 7 115
1879309N21332 1879 31 NA NA NOT_NAMED 1879-11-11 09:00:00 ET 33.5698 -18.4223 main 599 578 _____________P -1 33.5698 -18.4223 EX 37 7 107
1879309N21332 1879 31 NA NA NOT_NAMED 1879-11-11 12:00:00 ET 33.5000 -18.0000 main 578 567 _____________O -1 33.5000 -18.0000 EX 35 8 93
1879309N21332 1879 31 NA NA NOT_NAMED 1879-11-11 15:00:00 ET 33.5275 -17.5153 main 567 564 _____________P -1 33.5275 -17.5153 EX 35 8 83
1879309N21332 1879 31 NA NA NOT_NAMED 1879-11-11 18:00:00 ET 33.6000 -17.0000 main 571 569 _____________O -1 33.6000 -17.0000 EX 35 9 82
1879309N21332 1879 31 NA NA NOT_NAMED 1879-11-11 21:00:00 ET 33.6498 -16.4999 main 569 569 _____________P -1 33.6498 -16.4999 EX 32 8 83
1879309N21332 1879 31 NA NA NOT_NAMED 1879-11-12 00:00:00 ET 33.7000 -16.0000 main 580 575 _____________O -1 33.7000 -16.0000 EX 30 8 84
1879309N21332 1879 31 NA NA NOT_NAMED 1879-11-12 03:00:00 ET 33.7423 -15.4998 main 575 549 _____________P -1 33.7423 -15.4998 EX 30 8 83
1879309N21332 1879 31 NA NA NOT_NAMED 1879-11-12 06:00:00 ET 33.8000 -15.0000 main 549 507 _____________O -1 33.8000 -15.0000 EX 30 8 80
1879309N21332 1879 31 NA NA NOT_NAMED 1879-11-12 09:00:00 ET 33.8904 -14.5004 main 507 467 _____________P -1 33.8904 -14.5004 EX 27 9 76
1879309N21332 1879 31 NA NA NOT_NAMED 1879-11-12 12:00:00 ET 34.0000 -14.0000 main 467 _____________O -1 34.0000 -14.0000 EX 25 9 75

IBTrACS Databaseについて

本データベースは、米国NOAAが公開する1842年以降の世界の熱帯低気圧のベストトラックデータアーカイブInternational Best Track Archive for Climate Stewardship (IBTrACS)を、ウェブで閲覧しやすい形式に変換したものです。

最終更新日:2021-12-03